Time;durP1;ratioP1;P1;durP2;ratioP2;P2;SDS_P1;SDS_P2;PMS_P1;PMS_P2;Temp;Humidity;BMP_temperature;BMP_pressure;BME280_temperature;BME280_humidity;BME280_pressure;Samples;Min_cycle;Max_cycle;Signal;HPM_P1;HPM_P2
2022/10/14 00:01:12;;;;;;;26.90;18.67;;;;;;;10.20;91.86;101244.02;1729225;80;21125;-73
2022/10/14 00:03:40;;;;;;;28.03;19.17;;;;;;;10.19;91.94;101246.36;1735743;80;20996;-74
2022/10/14 00:06:11;;;;;;;28.50;19.17;;;;;;;10.18;91.57;101245.19;1752425;80;20981;-73
2022/10/14 00:08:41;;;;;;;31.23;19.50;;;;;;;10.13;91.37;101244.33;1743201;80;21560;-74
2022/10/14 00:11:17;;;;;;;28.97;19.30;;;;;;;10.10;91.22;101241.50;1740054;80;21025;-74
2022/10/14 00:13:45;;;;;;;27.70;19.33;;;;;;;10.09;91.12;101243.81;1749464;80;21510;-74
2022/10/14 00:16:38;;;;;;;27.60;19.30;;;;;;;10.09;91.07;101237.66;1747605;80;21051;-73
2022/10/14 00:19:07;;;;;;;27.57;19.20;;;;;;;10.11;91.27;101243.19;1627078;86;21100;-73
2022/10/14 00:21:35;;;;;;;26.40;18.27;;;;;;;10.10;91.30;101243.34;1632816;86;21032;-73
2022/10/14 00:24:01;;;;;;;26.70;19.43;;;;;;;10.09;91.35;101237.16;1623543;86;21051;-74
2022/10/14 00:26:35;;;;;;;27.80;19.27;;;;;;;10.08;91.32;101235.51;1625977;86;21021;-73
2022/10/14 00:29:04;;;;;;;29.23;20.63;;;;;;;10.09;91.29;101234.50;1631653;86;21569;-73
2022/10/14 00:31:31;;;;;;;26.40;18.73;;;;;;;10.05;90.97;101237.66;1632777;86;21544;-72
2022/10/14 00:33:58;;;;;;;27.33;18.77;;;;;;;10.01;90.82;101233.66;1617019;86;21561;-79
2022/10/14 00:36:24;;;;;;;;;;;;;;;9.99;90.95;101238.31;1623370;86;21550;-73
2022/10/14 00:38:53;;;;;;;27.77;19.55;;;;;;;9.97;90.87;101238.47;1615937;86;20418;-73
2022/10/14 00:41:26;;;;;;;23.00;17.17;;;;;;;9.90;91.10;101234.28;1633934;86;21009;-74
2022/10/14 00:44:04;;;;;;;25.93;17.53;;;;;;;9.91;91.18;101240.46;1632788;86;21042;-73
2022/10/14 00:46:42;;;;;;;28.27;17.73;;;;;;;9.88;90.81;101233.61;1632977;86;20970;-72
2022/10/14 00:49:31;;;;;;;30.37;19.00;;;;;;;9.84;90.81;101229.61;1624950;86;21052;-73
2022/10/14 00:52:14;;;;;;;27.60;17.92;;;;;;;9.80;90.80;101233.59;1624152;86;21631;-75
2022/10/14 00:54:52;;;;;;;24.27;16.80;;;;;;;9.75;91.02;101229.24;1629157;86;20970;-73
2022/10/14 00:57:19;;;;;;;26.13;18.20;;;;;;;9.73;91.28;101222.74;1632418;86;21175;-73
2022/10/14 00:59:45;;;;;;;23.17;17.60;;;;;;;9.74;91.46;101221.77;1633944;86;21026;-73
2022/10/14 01:02:12;;;;;;;29.40;18.97;;;;;;;9.72;91.68;101213.11;1629016;86;21126;-75
2022/10/14 01:04:41;;;;;;;30.40;18.90;;;;;;;9.68;91.98;101213.57;1632933;85;21545;-72
2022/10/14 01:07:37;;;;;;;27.43;18.37;;;;;;;9.63;92.36;101211.91;1634864;86;21037;-81
2022/10/14 01:10:14;;;;;;;28.50;19.40;;;;;;;9.61;92.54;101213.40;1626083;86;21651;-74
2022/10/14 01:12:55;;;;;;;25.17;17.93;;;;;;;9.59;92.74;101207.41;1627307;86;21096;-72
2022/10/14 01:15:39;;;;;;;26.90;19.03;;;;;;;9.63;92.91;101209.25;1633136;88;21257;-73
2022/10/14 01:18:45;;;;;;;30.17;17.67;;;;;;;9.66;92.74;101211.56;1644641;86;21065;-72
2022/10/14 01:21:23;;;;;;;31.30;17.97;;;;;;;9.67;92.42;101211.92;1630019;85;21133;-72
2022/10/14 01:24:18;;;;;;;27.70;19.80;;;;;;;9.66;92.51;101212.91;1642620;85;21150;-73
2022/10/14 01:27:02;;;;;;;32.83;22.53;;;;;;;9.68;92.44;101204.25;1644437;87;21023;-74
2022/10/14 01:30:04;;;;;;;28.63;20.90;;;;;;;9.70;92.42;101215.57;1643112;85;21081;-73
2022/10/14 01:32:43;;;;;;;27.80;19.67;;;;;;;9.72;92.31;101205.63;1645248;85;21130;-73
2022/10/14 01:35:24;;;;;;;33.43;19.53;;;;;;;9.73;91.98;101206.77;1648692;85;21094;-73
2022/10/14 01:38:02;;;;;;;38.27;19.60;;;;;;;9.71;91.74;101204.77;1654071;85;21018;-72
2022/10/14 01:40:40;;;;;;;28.43;19.03;;;;;;;9.71;91.55;101206.61;1651543;84;21018;-71
2022/10/14 01:43:07;;;;;;;34.27;20.23;;;;;;;9.70;91.51;101207.11;1653797;85;21558;-72
2022/10/14 01:45:37;;;;;;;29.63;19.60;;;;;;;9.71;91.30;101204.77;1646984;85;21551;-72
2022/10/14 01:48:05;;;;;;;44.20;29.90;;;;;;;9.70;90.96;101208.91;1650542;84;21027;-74
2022/10/14 01:50:36;;;;;;;41.83;29.53;;;;;;;9.69;90.67;101207.27;1636194;85;21030;-73
2022/10/14 01:53:16;;;;;;;40.53;30.67;;;;;;;9.66;90.37;101202.25;1641742;85;20991;-81
2022/10/14 01:55:46;;;;;;;44.27;30.67;;;;;;;9.63;90.22;101207.92;1626984;87;21026;-76
2022/10/14 01:58:16;;;;;;;42.60;29.37;;;;;;;9.58;90.08;101204.39;1637966;85;21083;-74
2022/10/14 02:00:42;;;;;;;38.97;27.73;;;;;;;9.55;90.04;101206.89;1669795;85;21567;-74
2022/10/14 02:03:13;;;;;;;37.07;24.80;;;;;;;9.55;90.05;101207.39;1647972;85;21413;-73
2022/10/14 02:06:00;;;;;;;30.47;21.60;;;;;;;9.54;90.07;101209.20;1645536;85;21012;-73
2022/10/14 02:08:44;;;;;;;32.93;22.13;;;;;;;9.53;90.11;101206.22;1646825;85;21482;-73
2022/10/14 02:11:17;;;;;;;30.53;23.47;;;;;;;9.53;90.30;101207.55;1648209;85;21092;-74
2022/10/14 02:14:10;;;;;;;31.95;23.73;;;;;;;9.54;90.31;101204.38;1645819;85;21017;-74
2022/10/14 02:17:04;;;;;;;31.43;23.60;;;;;;;9.54;90.27;101204.38;1644504;85;21054;-73
2022/10/14 02:19:41;;;;;;;33.23;23.47;;;;;;;9.53;90.30;101200.89;1641686;85;21460;-74
2022/10/14 02:22:30;;;;;;;30.93;22.83;;;;;;;9.55;90.17;101202.89;1642392;85;20971;-73
2022/10/14 02:25:05;;;;;;;31.20;19.92;;;;;;;9.52;90.12;101203.20;1645441;85;21006;-79
2022/10/14 02:27:34;;;;;;;32.10;21.27;;;;;;;9.52;90.13;101201.05;1652626;85;21117;-74
2022/10/14 02:30:04;;;;;;;34.10;21.50;;;;;;;9.48;90.28;101204.52;1642794;85;20982;-73
2022/10/14 02:32:34;;;;;;;24.60;18.43;;;;;;;9.46;90.49;101199.03;1634332;85;21069;-70
2022/10/14 02:35:03;;;;;;;31.57;20.33;;;;;;;9.48;90.64;101201.86;1654695;85;21050;-70
2022/10/14 02:37:32;;;;;;;25.27;19.23;;;;;;;9.48;90.81;101197.87;1639929;84;21010;-70
2022/10/14 02:40:15;;;;;;;32.03;19.00;;;;;;;9.46;90.78;101198.53;1653043;85;21081;-68
2022/10/14 02:42:43;;;;;;;25.90;18.90;;;;;;;9.40;91.13;101193.00;1643362;85;21019;-70
2022/10/14 02:45:11;;;;;;;32.15;17.25;;;;;;;9.32;91.37;101197.31;1640987;85;21066;-73
2022/10/14 02:47:38;;;;;;;24.43;16.27;;;;;;;9.29;91.61;101190.97;1631919;87;21074;-72
2022/10/14 02:50:06;;;;;;;25.47;17.03;;;;;;;9.29;91.71;101196.80;1645501;85;21106;-69
2022/10/14 02:52:32;;;;;;;24.93;17.03;;;;;;;9.28;91.83;101201.77;1650410;85;21403;-71
2022/10/14 02:55:00;;;;;;;27.87;18.30;;;;;;;9.24;91.91;101197.25;1653192;85;21070;-68
2022/10/14 02:57:26;;;;;;;26.60;17.15;;;;;;;9.21;92.02;101196.27;1649790;85;21498;-73
2022/10/14 02:59:54;;;;;;;24.97;16.63;;;;;;;9.20;92.23;101196.41;1635863;85;21006;-69
2022/10/14 03:02:23;;;;;;;28.50;17.43;;;;;;;9.16;92.71;101196.72;1643266;85;21073;-70
2022/10/14 03:04:49;;;;;;;28.90;17.65;;;;;;;9.12;93.19;101204.68;1644686;85;21010;-70
2022/10/14 03:07:15;;;;;;;29.67;18.20;;;;;;;9.09;93.41;101198.84;1636099;85;21038;-68
2022/10/14 03:09:43;;;;;;;26.50;17.33;;;;;;;9.09;93.63;101198.84;1645947;85;21014;-70
2022/10/14 03:12:10;;;;;;;30.75;17.05;;;;;;;9.09;93.88;101198.33;1638503;85;21316;-74
2022/10/14 03:14:36;;;;;;;26.25;17.27;;;;;;;9.12;93.96;101202.52;1647722;87;21518;-69
2022/10/14 03:17:04;;;;;;;27.97;18.97;;;;;;;8.37;93.89;101070.94;1647676;85;21081;-70
2022/10/14 03:19:34;;;;;;;24.53;18.03;;;;;;;9.16;94.24;101197.22;1642430;85;21071;-70
2022/10/14 03:22:00;;;;;;;26.03;18.60;;;;;;;9.17;94.40;101198.88;1645274;85;21041;-69
2022/10/14 03:24:26;;;;;;;23.50;17.73;;;;;;;9.19;94.38;101201.38;1653850;85;21554;-71
2022/10/14 03:27:00;;;;;;;32.77;16.33;;;;;;;9.20;94.34;101192.42;1645201;85;21070;-69
2022/10/14 03:29:27;;;;;;;23.47;17.87;;;;;;;9.18;94.40;101194.41;1643896;85;21006;-70
2022/10/14 03:32:02;;;;;;;26.53;19.37;;;;;;;9.18;94.40;101191.25;1643559;85;21071;-68
2022/10/14 03:34:33;;;;;;;29.50;18.57;;;;;;;9.16;94.44;101194.56;1646813;85;21042;-69
2022/10/14 03:37:04;;;;;;;27.70;17.20;;;;;;;9.16;94.60;101194.05;1651950;85;21170;-68
2022/10/14 03:39:31;;;;;;;29.70;18.00;;;;;;;9.19;94.64;101194.73;1653932;85;21022;-69
2022/10/14 03:41:59;;;;;;;28.73;18.57;;;;;;;9.23;94.69;101199.59;1646977;84;21042;-69
2022/10/14 03:44:27;;;;;;;28.10;18.33;;;;;;;9.27;94.54;101188.97;1653447;85;20975;-68
2022/10/14 03:47:12;;;;;;;26.13;17.63;;;;;;;9.32;94.42;101198.64;1651124;85;21051;-71
2022/10/14 03:49:39;;;;;;;23.57;17.43;;;;;;;9.35;94.23;101192.16;1645109;85;20993;-69
2022/10/14 03:52:08;;;;;;;29.67;17.77;;;;;;;9.36;94.12;101192.48;1652483;85;21022;-71
2022/10/14 03:54:35;;;;;;;24.30;16.17;;;;;;;9.38;93.95;101193.19;1645945;85;21145;-69
2022/10/14 03:57:01;;;;;;;25.90;17.85;;;;;;;9.36;93.96;101191.15;1647279;85;21066;-69
2022/10/14 03:59:29;;;;;;;32.37;18.73;;;;;;;9.36;93.82;101195.14;1654468;85;21109;-69
2022/10/14 04:01:56;;;;;;;32.13;18.53;;;;;;;9.32;93.82;101194.66;1654027;85;22065;-71
2022/10/14 04:04:24;;;;;;;26.43;18.60;;;;;;;9.32;93.81;101192.47;1639984;85;21657;-70
2022/10/14 04:06:50;;;;;;;22.77;16.57;;;;;;;9.33;93.84;101189.66;1636503;87;21110;-70
2022/10/14 04:09:18;;;;;;;24.30;17.43;;;;;;;9.37;93.67;101192.01;1637538;85;21089;-70
2022/10/14 04:11:44;;;;;;;25.68;17.20;;;;;;;9.36;93.42;101192.48;1644021;85;20998;-72
2022/10/14 04:14:14;;;;;;;25.80;16.97;;;;;;;9.37;93.29;101196.82;1640418;85;21653;-71
2022/10/14 04:16:43;;;;;;;25.43;16.77;;;;;;;9.39;93.14;101190.84;1638379;85;21025;-70
2022/10/14 04:19:11;;;;;;;28.30;18.07;;;;;;;9.40;92.96;101190.34;1642516;85;21093;-70
2022/10/14 04:21:39;;;;;;;26.57;18.97;;;;;;;9.41;92.68;101194.17;1643227;85;21022;-70
2022/10/14 04:24:06;;;;;;;24.97;16.43;;;;;;;9.39;92.47;101194.83;1643920;85;21634;-69
2022/10/14 04:26:37;;;;;;;23.63;14.97;;;;;;;9.39;92.30;101191.34;1639958;85;21046;-70
2022/10/14 04:29:05;;;;;;;25.67;16.93;;;;;;;9.35;92.16;101195.64;1645425;85;21030;-72
2022/10/14 04:31:34;;;;;;;25.47;16.17;;;;;;;9.27;92.00;101200.11;1645732;85;21050;-70
2022/10/14 04:34:02;;;;;;;24.23;16.80;;;;;;;9.22;92.29;101200.57;1635293;87;21025;-74
2022/10/14 04:36:29;;;;;;;25.43;17.33;;;;;;;9.18;92.24;101202.39;1646053;85;21015;-74
2022/10/14 04:38:57;;;;;;;28.13;16.77;;;;;;;9.12;92.38;101196.70;1635966;85;21082;-75
2022/10/14 04:41:23;;;;;;;;;;;;;;;9.08;92.36;101200.67;1644089;85;21033;-73
2022/10/14 04:43:49;;;;;;;30.17;18.70;;;;;;;9.02;92.39;101195.95;1644374;85;20198;-75
2022/10/14 04:46:17;;;;;;;27.73;18.30;;;;;;;8.87;92.72;101198.86;1642858;85;21014;-78
2022/10/14 04:48:47;;;;;;;26.27;19.07;;;;;;;8.79;92.96;101208.12;1644179;85;21065;-74
2022/10/14 04:51:14;;;;;;;30.40;18.70;;;;;;;8.77;93.45;101209.59;1654628;85;21070;-72
2022/10/14 04:53:42;;;;;;;29.97;19.60;;;;;;;8.80;93.80;101217.74;1657193;85;21085;-73
2022/10/14 04:56:14;;;;;;;28.87;20.00;;;;;;;8.81;93.74;101206.96;1623357;85;21038;-74
2022/10/14 04:58:43;;;;;;;36.67;20.67;;;;;;;8.83;93.70;101212.13;1644352;85;21780;-77
2022/10/14 05:01:09;;;;;;;32.03;22.77;;;;;;;8.83;93.63;101213.45;1642760;85;21178;-76
2022/10/14 05:03:37;;;;;;;35.17;22.90;;;;;;;8.81;93.65;101210.13;1636094;85;21130;-76
2022/10/14 05:06:04;;;;;;;32.63;22.50;;;;;;;8.79;93.56;101213.44;1650601;85;21018;-75
2022/10/14 05:08:31;;;;;;;36.50;23.90;;;;;;;8.77;93.50;101215.73;1646402;85;21141;-76
2022/10/14 05:11:01;;;;;;;39.20;23.47;;;;;;;8.75;93.55;101216.89;1653105;85;21535;-74
2022/10/14 05:13:34;;;;;;;28.30;22.50;;;;;;;8.73;93.65;101215.71;1631306;83;21586;-74
2022/10/14 05:16:04;;;;;;;39.83;25.40;;;;;;;8.71;93.74;101213.70;1632129;84;21010;-75
2022/10/14 05:18:31;;;;;;;35.87;24.80;;;;;;;8.69;93.80;101222.84;1625441;86;21078;-73
2022/10/14 05:20:59;;;;;;;35.17;24.53;;;;;;;8.63;94.04;101220.30;1637778;85;21069;-74
2022/10/14 05:23:29;;;;;;;33.30;24.17;;;;;;;8.61;94.43;101215.64;1641214;86;21034;-74
2022/10/14 05:25:58;;;;;;;37.33;26.00;;;;;;;8.60;94.61;101220.59;1637349;84;21005;-74
2022/10/14 05:28:25;;;;;;;37.37;24.20;;;;;;;8.58;94.77;101222.58;1638296;85;21546;-74
2022/10/14 05:30:51;;;;;;;;;;;;;;;8.60;94.98;101223.25;1637951;86;21099;-76
2022/10/14 05:33:18;;;;;;;35.23;23.37;;;;;;;8.64;94.96;101223.28;1639675;84;20129;-75
2022/10/14 05:35:45;;;;;;;38.13;24.63;;;;;;;8.61;95.01;101225.41;1635352;86;21562;-73
2022/10/14 05:38:13;;;;;;;29.30;21.87;;;;;;;8.58;94.99;101229.22;1650003;85;21644;-74
2022/10/14 05:40:42;;;;;;;30.13;23.27;;;;;;;8.57;95.12;101234.20;1635670;83;21048;-76
2022/10/14 05:43:10;;;;;;;33.80;25.47;;;;;;;8.60;95.28;101233.88;1632469;86;21041;-75
2022/10/14 05:45:39;;;;;;;31.53;24.33;;;;;;;8.64;95.42;101239.23;1637114;84;21061;-78
2022/10/14 05:48:05;;;;;;;33.63;25.43;;;;;;;8.71;95.35;101242.95;1625152;85;21581;-75
2022/10/14 05:50:32;;;;;;;31.43;23.07;;;;;;;8.76;95.15;101240.67;1643853;86;21049;-76
2022/10/14 05:53:00;;;;;;;36.27;23.90;;;;;;;8.80;95.00;101241.20;1640404;84;21550;-75
2022/10/14 05:55:28;;;;;;;29.83;23.13;;;;;;;8.89;94.81;101244.73;1648431;85;21076;-75
2022/10/14 05:57:57;;;;;;;31.27;24.37;;;;;;;8.96;94.43;101247.94;1638754;85;21022;-76
2022/10/14 06:00:25;;;;;;;29.90;23.77;;;;;;;9.03;94.03;101244.18;1646941;84;21213;-75
2022/10/14 06:02:52;;;;;;;32.43;24.20;;;;;;;9.05;93.26;101247.52;1658345;85;21006;-75
2022/10/14 06:05:19;;;;;;;38.60;24.63;;;;;;;9.05;93.17;101245.36;1650410;85;21081;-74
2022/10/14 06:07:45;;;;;;;42.05;25.97;;;;;;;8.98;93.16;101230.51;1650983;85;21139;-76
2022/10/14 06:10:11;;;;;;;48.38;26.87;;;;;;;9.05;93.19;101245.36;1645683;85;21041;-73
2022/10/14 06:12:39;;;;;;;43.00;28.10;;;;;;;9.07;93.32;101246.86;1653563;85;22266;-76
2022/10/14 06:15:06;;;;;;;38.77;24.90;;;;;;;9.13;93.48;101242.73;1647056;85;21070;-75
2022/10/14 06:17:34;;;;;;;35.30;21.70;;;;;;;9.15;93.25;101246.94;1631879;86;21047;-72
2022/10/14 06:20:01;;;;;;;28.93;22.43;;;;;;;9.20;93.09;101245.62;1630750;86;21366;-75
2022/10/14 06:22:28;;;;;;;29.60;21.83;;;;;;;9.24;92.83;101243.81;1639245;86;21503;-75
2022/10/14 06:24:54;;;;;;;37.35;22.90;;;;;;;9.27;92.48;101248.83;1631953;84;21566;-75
2022/10/14 06:27:20;;;;;;;33.33;23.40;;;;;;;9.28;92.13;101249.65;1658776;85;21077;-72
2022/10/14 06:29:47;;;;;;;34.40;22.70;;;;;;;9.26;92.15;101252.47;1658372;85;21014;-77
2022/10/14 06:32:14;;;;;;;34.25;24.52;;;;;;;9.31;92.34;101256.00;1640426;85;21030;-79
2022/10/14 06:34:40;;;;;;;31.00;21.70;;;;;;;9.39;92.47;101257.36;1654898;85;21049;-75
2022/10/14 06:37:07;;;;;;;30.53;22.80;;;;;;;9.52;92.29;101258.27;1642323;85;20983;-77
2022/10/14 06:39:33;;;;;;;33.90;22.80;;;;;;;9.63;91.25;101258.50;1645145;85;21030;-78
2022/10/14 06:42:03;;;;;;;36.45;25.35;;;;;;;9.67;90.66;101261.17;1640969;85;21005;-75
2022/10/14 06:44:29;;;;;;;36.60;24.80;;;;;;;9.72;90.59;101258.88;1645535;85;21018;-75
2022/10/14 06:46:55;;;;;;;34.48;24.65;;;;;;;9.77;90.41;101256.54;1646356;85;21067;-77
2022/10/14 06:49:22;;;;;;;36.45;25.68;;;;;;;9.80;90.06;101252.74;1650541;85;21073;-76
2022/10/14 06:51:48;;;;;;;39.80;25.80;;;;;;;9.85;89.95;101252.59;1642218;85;21478;-77
2022/10/14 06:54:16;;;;;;;33.37;24.03;;;;;;;9.92;89.78;101255.43;1653896;85;21497;-76
2022/10/14 06:56:42;;;;;;;;;;;;;;;10.02;89.67;101255.28;1651957;85;20975;-75
2022/10/14 06:59:08;;;;;;;28.83;21.63;;;;;;;10.16;89.48;101260.51;1652235;85;20195;-77
2022/10/14 07:01:35;;;;;;;;;;;;;;;10.27;89.55;101254.36;1635685;85;21041;-77
2022/10/14 07:04:03;;;;;;;34.87;22.67;;;;;;;10.45;88.13;101255.59;1641551;85;20130;-78
2022/10/14 07:06:30;;;;;;;27.23;19.40;;;;;;;10.54;87.26;101251.09;1637705;85;21529;-76
2022/10/14 07:08:58;;;;;;;24.80;16.47;;;;;;;10.67;87.09;101249.27;1644304;85;21010;-77
2022/10/14 07:11:24;;;;;;;23.07;15.97;;;;;;;10.80;86.01;101251.44;1643712;85;21014;-77
2022/10/14 07:13:54;;;;;;;21.17;13.90;;;;;;;10.89;85.08;101250.43;1628975;84;21099;-77
2022/10/14 07:16:22;;;;;;;15.57;12.70;;;;;;;10.91;83.45;101247.09;1634277;85;21075;-79
2022/10/14 07:18:49;;;;;;;17.83;12.67;;;;;;;10.83;83.14;101246.60;1648510;85;21168;-80
2022/10/14 07:21:15;;;;;;;17.15;13.28;;;;;;;10.77;83.44;101247.76;1641560;85;21053;-80
2022/10/14 07:23:41;;;;;;;34.00;15.70;;;;;;;10.77;83.70;101245.09;1639831;85;21197;-82
2022/10/14 07:26:07;;;;;;;19.10;13.38;;;;;;;10.78;84.17;101244.93;1640671;85;21110;-81
2022/10/14 07:28:35;;;;;;;16.40;13.70;;;;;;;10.87;84.47;101247.93;1644488;85;21082;-80
2022/10/14 07:31:09;;;;;;;;;;;;;;;11.01;84.09;101239.73;1653600;85;21056;-82
2022/10/14 07:33:37;;;;;;;26.60;14.47;;;;;;;11.13;83.25;101236.71;1644926;85;20142;-82
2022/10/14 07:36:08;;;;;;;23.62;16.00;;;;;;;11.17;83.31;101242.89;1648339;85;21070;-83
2022/10/14 07:38:35;;;;;;;24.63;14.43;;;;;;;11.29;82.76;101238.02;1644478;85;21033;-83
2022/10/14 07:41:16;;;;;;;22.32;13.93;;;;;;;11.40;82.77;101246.99;1646716;84;21542;-82
2022/10/14 07:43:47;;;;;;;24.90;14.23;;;;;;;11.50;81.81;101246.28;1642357;85;21022;-83
2022/10/14 07:46:27;;;;;;;21.70;14.38;;;;;;;11.53;80.74;101245.60;1624942;86;21079;-83
2022/10/14 07:48:45;;;;;;;19.02;12.73;;;;;;;11.52;81.10;101245.29;1638568;85;21026;-83
2022/10/14 07:51:12;;;;;;;;;;;;;;;11.55;80.60;101236.95;1648900;85;21149;-80
2022/10/14 07:53:38;;;;;;;25.40;12.40;;;;;;;11.58;80.35;101240.59;1645335;85;20150;-83
2022/10/14 07:56:05;;;;;;;22.98;13.15;;;;;;;11.59;80.65;101248.43;1642248;85;21135;-80
2022/10/14 07:58:31;;;;;;;;;;;;;;;11.66;79.73;101241.91;1651661;85;21033;-80
2022/10/14 08:00:58;;;;;;;20.48;13.68;;;;;;;11.62;79.25;101241.91;1649249;85;20222;-81
2022/10/14 08:03:25;;;;;;;18.05;10.95;;;;;;;11.50;79.90;101242.28;1642994;87;21010;-80
2022/10/14 08:06:03;;;;;;;15.98;10.03;;;;;;;11.53;79.91;101238.92;1651343;85;21534;-82
2022/10/14 08:08:30;;;;;;;16.90;11.00;;;;;;;11.64;79.86;101234.55;1640656;85;21594;-81
2022/10/14 08:11:13;;;;;;;14.75;10.82;;;;;;;11.69;78.86;101237.03;1649265;85;21049;-83
2022/10/14 08:13:40;;;;;;;13.40;9.68;;;;;;;11.71;78.99;101237.37;1650169;85;21057;-81
2022/10/14 08:16:21;;;;;;;10.72;7.55;;;;;;;11.70;78.51;101235.20;1641963;85;21066;-78
2022/10/14 08:18:49;;;;;;;15.10;8.58;;;;;;;11.66;78.39;101224.55;1649275;85;21509;-78
2022/10/14 08:21:17;;;;;;;11.03;7.60;;;;;;;11.64;78.09;101234.06;1651180;84;21042;-78
2022/10/14 08:23:44;;;;;;;16.65;9.25;;;;;;;11.70;78.15;101228.53;1648724;85;21093;-78
2022/10/14 08:26:31;;;;;;;12.25;8.95;;;;;;;11.75;77.31;101235.50;1650403;85;21073;-79
2022/10/14 08:29:01;;;;;;;13.75;8.05;;;;;;;11.75;77.42;101233.34;1647976;85;21073;-78
2022/10/14 08:31:33;;;;;;;15.32;8.98;;;;;;;11.78;77.75;101233.00;1638859;85;21626;-79
2022/10/14 08:34:00;;;;;;;9.33;8.03;;;;;;;11.82;77.25;101228.97;1646550;85;21018;-79
2022/10/14 08:36:26;;;;;;;13.62;9.23;;;;;;;11.84;76.91;101237.13;1652112;85;21101;-82
2022/10/14 08:38:54;;;;;;;8.90;8.05;;;;;;;11.87;77.00;101231.96;1652678;85;21491;-79
2022/10/14 08:41:44;;;;;;;13.15;7.90;;;;;;;11.98;77.22;101226.73;1658334;85;21543;-79
2022/10/14 08:44:26;;;;;;;14.98;7.28;;;;;;;12.14;77.19;101224.48;1650560;85;21054;-81
2022/10/14 08:47:02;;;;;;;9.20;6.60;;;;;;;12.33;76.14;101229.36;1627119;87;21148;-79
2022/10/14 08:49:43;;;;;;;15.98;7.62;;;;;;;12.44;73.77;101232.12;1659164;85;20978;-80
2022/10/14 08:52:15;;;;;;;10.23;5.17;;;;;;;12.44;73.90;101228.94;1615915;87;21030;-80
2022/10/14 08:54:54;;;;;;;10.58;6.50;;;;;;;12.44;72.71;101225.44;1656946;85;21102;-86
2022/10/14 08:57:27;;;;;;;10.75;7.17;;;;;;;12.45;73.50;101220.41;1603504;84;21343;-80
2022/10/14 08:59:54;;;;;;;10.45;5.78;;;;;;;12.50;73.16;101223.37;1643697;85;21046;-76
2022/10/14 09:02:42;;;;;;;9.38;5.75;;;;;;;12.52;71.91;101221.36;1647431;85;21037;-77
2022/10/14 09:05:24;;;;;;;9.40;6.92;;;;;;;12.55;71.72;101226.87;1649145;85;21697;-80
2022/10/14 09:07:55;;;;;;;13.55;7.80;;;;;;;12.50;71.36;101224.72;1650272;85;21066;-81
2022/10/14 09:10:40;;;;;;;12.40;7.15;;;;;;;12.45;72.41;101228.42;1645837;85;20998;-77
2022/10/14 09:13:18;;;;;;;9.90;6.92;;;;;;;12.45;72.56;101232.44;1649169;85;21097;-78
2022/10/14 09:15:53;;;;;;;13.75;6.83;;;;;;;12.43;72.27;101221.09;1651369;85;21035;-79
2022/10/14 09:18:39;;;;;;;13.20;7.30;;;;;;;12.44;72.49;101216.08;1653997;85;21030;-80
2022/10/14 09:21:26;;;;;;;8.85;6.17;;;;;;;12.48;72.00;101220.57;1639101;85;21120;-84
2022/10/14 09:24:22;;;;;;;8.40;5.65;;;;;;;12.51;71.03;101223.72;1639785;85;21051;-74
2022/10/14 09:27:05;;;;;;;14.80;5.58;;;;;;;12.48;70.92;101223.24;1659975;85;20991;-77
2022/10/14 09:29:40;;;;;;;6.95;4.78;;;;;;;12.42;71.07;101221.60;1650779;85;21113;-67
2022/10/14 09:32:26;;;;;;;10.05;4.80;;;;;;;12.40;71.16;101217.45;1651123;85;21578;-67
2022/10/14 09:34:55;;;;;;;8.05;4.67;;;;;;;12.49;71.22;101215.53;1658751;85;21133;-69
2022/10/14 09:37:31;;;;;;;10.55;7.00;;;;;;;12.61;70.76;101216.78;1651660;85;21032;-67
2022/10/14 09:40:02;;;;;;;10.38;5.22;;;;;;;12.70;70.85;101211.69;1642068;85;21624;-68
2022/10/14 09:42:58;;;;;;;7.67;4.78;;;;;;;12.81;70.48;101209.09;1629025;87;21022;-69
2022/10/14 09:45:28;;;;;;;7.40;5.70;;;;;;;12.93;69.88;101198.77;1644278;85;21723;-73
2022/10/14 09:48:06;;;;;;;8.98;5.08;;;;;;;13.10;69.42;101199.44;1651192;85;21042;-75
2022/10/14 09:50:42;;;;;;;7.03;5.28;;;;;;;13.27;68.64;101196.06;1650760;85;21025;-81
2022/10/14 09:56:36;;;;;;;11.12;6.00;;;;;;;13.32;67.54;101196.38;1862558;75;22626;-73
2022/10/14 09:59:04;;;;;;;7.92;5.78;;;;;;;13.27;67.44;101198.23;1791890;78;21001;-75
2022/10/14 10:01:41;;;;;;;7.20;5.40;;;;;;;13.28;66.39;101200.39;1761329;79;22155;-76
2022/10/14 10:04:33;;;;;;;7.50;4.37;;;;;;;13.17;65.08;101201.19;1762677;79;20995;-77
2022/10/14 10:07:04;;;;;;;7.87;5.20;;;;;;;13.08;64.58;101199.61;1751808;80;21553;-77
2022/10/14 10:09:33;;;;;;;7.03;4.55;;;;;;;12.91;64.66;101201.62;1757611;80;21155;-74
2022/10/14 10:12:16;;;;;;;7.15;3.87;;;;;;;12.79;64.49;101195.04;1770370;80;21120;-77
2022/10/14 10:14:47;;;;;;;6.80;4.25;;;;;;;12.76;65.18;101190.89;1733899;80;21012;-76
2022/10/14 10:17:18;;;;;;;3.77;3.12;;;;;;;12.75;64.49;101196.42;1739179;80;21564;-80
2022/10/14 10:19:52;;;;;;;3.47;3.10;;;;;;;12.72;61.03;101192.79;1729411;81;21548;-80
2022/10/14 10:22:26;;;;;;;7.53;3.47;;;;;;;12.65;61.49;101190.81;1711431;81;21036;-82
2022/10/14 10:25:05;;;;;;;8.95;3.85;;;;;;;12.61;61.28;101192.20;1711211;82;21047;-78
2022/10/14 10:27:40;;;;;;;6.58;3.37;;;;;;;12.60;61.38;101197.23;1705963;82;21093;-78
2022/10/14 10:30:31;;;;;;;9.15;3.70;;;;;;;12.57;60.74;101192.75;1674114;84;21082;-81
2022/10/14 10:33:13;;;;;;;3.98;2.95;;;;;;;12.55;58.78;101200.95;1695799;83;21049;-84
2022/10/14 10:36:06;;;;;;;5.58;3.12;;;;;;;12.51;58.44;101195.64;1665890;84;21110;-78
2022/10/14 10:38:50;;;;;;;5.37;3.75;;;;;;;12.50;58.46;101189.13;1683959;84;21145;-79
2022/10/14 10:41:35;;;;;;;5.08;2.52;;;;;;;12.56;58.49;101193.75;1696479;83;20997;-81
2022/10/14 10:44:32;;;;;;;5.85;3.25;;;;;;;12.64;58.44;101196.37;1648594;85;21154;-83
2022/10/14 10:47:16;;;;;;;4.03;3.27;;;;;;;12.69;58.02;101197.98;1683697;84;21008;-84
2022/10/14 10:50:28;;;;;;;4.83;3.12;;;;;;;12.74;57.45;101191.58;1681430;83;21898;-78
2022/10/14 10:53:03;;;;;;;5.65;2.40;;;;;;;12.81;57.19;101183.67;1696827;83;21033;-79
2022/10/14 10:55:57;;;;;;;3.50;1.67;;;;;;;12.88;54.88;101183.77;1663608;84;21071;-79
2022/10/14 10:59:02;;;;;;;3.00;2.62;;;;;;;12.81;54.36;101183.16;1724890;82;20958;-81
2022/10/14 11:01:39;;;;;;;6.37;3.42;;;;;;;12.76;55.40;101180.70;1717741;82;21041;-79
2022/10/14 11:04:33;;;;;;;4.70;2.42;;;;;;;12.80;55.56;101168.63;1677034;84;21091;-81
2022/10/14 11:13:39;;;;;;;2.47;2.15;;;;;;;13.19;54.12;101159.52;1705394;83;21061;-80
2022/10/14 11:16:28;;;;;;;3.50;2.12;;;;;;;13.18;52.89;101171.22;1691299;83;21193;-80
2022/10/14 11:19:01;;;;;;;6.22;2.67;;;;;;;13.15;53.72;101160.91;1681793;84;21075;-81
2022/10/14 11:21:45;;;;;;;3.90;2.47;;;;;;;13.15;54.24;101155.55;1699602;83;21018;-81
2022/10/14 11:24:42;;;;;;;5.03;1.77;;;;;;;13.21;53.79;101156.97;1696313;84;21097;-79
2022/10/14 11:27:16;;;;;;;2.17;1.98;;;;;;;13.24;53.01;101157.09;1710702;83;21105;-82
2022/10/14 11:30:07;;;;;;;4.70;1.82;;;;;;;13.19;52.28;101154.16;1698373;83;21012;-81
2022/10/14 11:33:14;;;;;;;3.60;1.92;;;;;;;13.12;52.75;101154.06;1698925;83;21124;-81
2022/10/14 11:35:53;;;;;;;3.58;2.37;;;;;;;13.08;53.33;101151.44;1699051;83;21612;-81
2022/10/14 11:38:33;;;;;;;5.60;2.70;;;;;;;13.04;53.65;101146.95;1697026;84;21033;-80
2022/10/14 11:41:39;;;;;;;2.37;1.57;;;;;;;13.03;54.01;101146.65;1710888;80;21146;-80
2022/10/14 11:44:11;;;;;;;3.52;1.45;;;;;;;13.08;54.30;101152.77;1731360;81;21103;-81
2022/10/14 11:46:42;;;;;;;2.60;1.85;;;;;;;13.07;53.82;101144.92;1711226;82;21071;-81
2022/10/14 11:49:24;;;;;;;3.20;1.60;;;;;;;13.09;53.71;101144.23;1711526;81;21024;-83
2022/10/14 11:52:10;;;;;;;2.87;1.75;;;;;;;13.10;53.49;101148.06;1713186;82;20981;-80
2022/10/14 11:54:45;;;;;;;5.37;2.80;;;;;;;13.08;53.11;101143.92;1704692;82;21656;-81
2022/10/14 11:57:23;;;;;;;5.05;1.65;;;;;;;13.10;53.55;101143.22;1703394;82;21013;-80